createdAt,value
2023-01-19T00:01:39.440Z,93643.03
2023-01-19T00:04:06.977Z,93647.00
2023-01-19T00:06:35.207Z,93644.72
2023-01-19T00:09:02.241Z,93650.28
2023-01-19T00:11:28.957Z,93653.22
2023-01-19T00:13:55.750Z,93654.56
2023-01-19T00:16:23.441Z,93654.13
2023-01-19T00:18:51.809Z,93651.75
2023-01-19T00:21:18.589Z,93651.19
2023-01-19T00:23:47.662Z,93653.22
2023-01-19T00:26:16.183Z,93656.84
2023-01-19T00:28:43.303Z,93660.69
2023-01-19T00:31:11.372Z,93656.94
2023-01-19T00:33:38.085Z,93666.00
2023-01-19T00:36:06.105Z,93670.88
2023-01-19T00:38:32.804Z,93674.72
2023-01-19T00:41:00.856Z,93672.34
2023-01-19T00:43:28.354Z,93680.13
2023-01-19T00:45:55.161Z,93679.69
2023-01-19T00:48:21.898Z,93674.06
2023-01-19T00:50:49.151Z,93674.06
2023-01-19T00:53:15.938Z,93674.59
2023-01-19T00:55:42.601Z,93679.38
2023-01-19T00:58:10.858Z,93684.13
2023-01-19T01:00:37.667Z,93684.44
2023-01-19T01:03:05.160Z,93686.38
2023-01-19T01:05:32.367Z,93691.81
2023-01-19T01:07:59.088Z,93695.44
2023-01-19T01:10:28.958Z,93688.41
2023-01-19T01:12:58.837Z,93696.22
2023-01-19T01:15:28.369Z,93695.44
2023-01-19T01:17:55.818Z,93698.03
2023-01-19T01:20:25.275Z,93708.19
2023-01-19T01:22:53.647Z,93708.19
2023-01-19T01:25:22.791Z,93711.38
2023-01-19T01:27:50.259Z,93712.16
2023-01-19T01:30:17.102Z,93710.38
2023-01-19T01:32:45.391Z,93710.91
2023-01-19T01:35:13.525Z,93709.34
2023-01-19T01:37:40.610Z,93724.75
2023-01-19T01:40:08.494Z,93717.94
2023-01-19T01:42:35.306Z,93718.97
2023-01-19T01:45:06.229Z,93724.28
2023-01-19T01:47:38.973Z,93719.31
2023-01-19T01:50:12.909Z,93731.28
2023-01-19T01:53:07.500Z,93727.25
2023-01-19T01:55:34.320Z,93723.03
2023-01-19T01:58:04.640Z,93732.00
2023-01-19T02:00:54.099Z,93730.38
2023-01-19T02:03:23.564Z,93736.63
2023-01-19T02:05:53.628Z,93741.03
2023-01-19T02:08:45.379Z,93741.63
2023-01-19T02:11:30.833Z,93740.00
2023-01-19T02:13:57.558Z,93736.50
2023-01-19T02:16:24.349Z,93734.94
2023-01-19T02:18:51.156Z,93733.13
2023-01-19T02:21:22.991Z,93736.28
2023-01-19T02:23:53.219Z,93738.06
2023-01-19T02:26:23.284Z,93743.28
2023-01-19T02:28:53.580Z,93743.06
2023-01-19T02:31:20.574Z,93740.25
2023-01-19T02:33:47.286Z,93746.00
2023-01-19T02:36:17.029Z,93746.38
2023-01-19T02:38:44.898Z,93746.81
2023-01-19T02:41:17.032Z,93751.91
2023-01-19T02:43:44.918Z,93750.75
2023-01-19T02:46:11.674Z,93747.81
2023-01-19T02:48:38.443Z,93744.84
2023-01-19T02:51:14.145Z,93744.84
2023-01-19T02:53:57.930Z,93747.69
2023-01-19T02:56:43.706Z,93749.28
2023-01-19T02:59:16.792Z,93746.66
2023-01-19T03:02:08.908Z,93746.44
2023-01-19T03:04:57.726Z,93746.22
2023-01-19T03:07:33.344Z,93747.81
2023-01-19T03:10:07.600Z,93750.75
2023-01-19T03:12:41.355Z,93750.75
2023-01-19T03:15:17.715Z,93741.00
2023-01-19T03:17:45.533Z,93750.50
2023-01-19T03:20:18.233Z,93757.41
2023-01-19T03:22:48.088Z,93752.06
2023-01-19T03:25:15.811Z,93753.31
2023-01-19T03:27:46.271Z,93748.78
2023-01-19T03:30:18.716Z,93753.84
2023-01-19T03:32:49.948Z,93754.88
2023-01-19T03:35:19.446Z,93750.69
2023-01-19T03:37:50.582Z,93755.66
2023-01-19T03:40:17.757Z,93758.84
2023-01-19T03:42:47.321Z,93761.88
2023-01-19T03:45:15.046Z,93758.13
2023-01-19T03:47:41.901Z,93760.38
2023-01-19T03:50:15.196Z,93761.84
2023-01-19T03:52:41.852Z,93765.31
2023-01-19T03:55:10.149Z,93763.16
2023-01-19T03:57:37.483Z,93761.59
2023-01-19T04:00:07.036Z,93769.41
2023-01-19T04:02:38.861Z,93763.16
2023-01-19T04:05:06.500Z,93761.69
2023-01-19T04:07:33.155Z,93763.50
2023-01-19T04:09:59.939Z,93768.72
2023-01-19T04:12:26.518Z,93769.28
2023-01-19T04:14:53.169Z,93763.44
2023-01-19T04:17:21.122Z,93767.97
2023-01-19T04:19:48.272Z,93772.94
2023-01-19T04:22:14.909Z,93775.78
2023-01-19T04:24:41.585Z,93770.78
2023-01-19T04:27:08.221Z,93772.81
2023-01-19T04:29:34.856Z,93772.03
2023-01-19T04:32:01.560Z,93768.06
2023-01-19T04:34:29.714Z,93767.28
2023-01-19T04:36:56.624Z,93770.66
2023-01-19T04:39:23.322Z,93768.25
2023-01-19T04:41:51.594Z,93764.09
2023-01-19T04:44:18.263Z,93766.13
2023-01-19T04:46:45.321Z,93762.72
2023-01-19T04:49:12.213Z,93763.50
2023-01-19T04:51:40.214Z,93763.50
2023-01-19T04:54:09.018Z,93766.56
2023-01-19T04:56:36.154Z,93759.00
2023-01-19T04:59:02.937Z,93771.19
2023-01-19T05:01:29.831Z,93778.63
2023-01-19T05:03:58.752Z,93779.06
2023-01-19T05:06:25.657Z,93779.28
2023-01-19T05:08:53.639Z,93782.34
2023-01-19T05:11:20.259Z,93797.00
2023-01-19T05:13:46.919Z,93796.28
2023-01-19T05:16:14.114Z,93799.31
2023-01-19T05:18:40.744Z,93799.75
2023-01-19T05:21:07.872Z,93806.97
2023-01-19T05:23:34.539Z,93808.78
2023-01-19T05:26:02.913Z,93813.53
2023-01-19T05:28:30.814Z,93813.09
2023-01-19T05:30:57.587Z,93809.72
2023-01-19T05:33:24.846Z,93811.28
2023-01-19T05:35:52.472Z,93821.47
2023-01-19T05:38:29.367Z,93819.91
2023-01-19T05:41:02.443Z,93814.13
2023-01-19T05:43:29.092Z,93819.19
2023-01-19T05:45:55.727Z,93813.84
2023-01-19T05:48:22.381Z,93817.88
2023-01-19T05:50:49.621Z,93815.13
2023-01-19T05:53:17.008Z,93812.16
2023-01-19T05:55:43.743Z,93819.63
2023-01-19T05:58:11.926Z,93824.22
2023-01-19T06:00:38.555Z,93829.06
2023-01-19T06:03:06.616Z,93836.47
2023-01-19T06:05:33.996Z,93835.34
2023-01-19T06:08:00.757Z,93839.78
2023-01-19T06:10:27.554Z,93836.25
2023-01-19T06:12:54.336Z,93836.09
2023-01-19T06:15:22.825Z,93833.53
2023-01-19T06:17:49.549Z,93831.00
2023-01-19T06:20:16.846Z,93834.03
2023-01-19T06:22:43.508Z,93831.88
2023-01-19T06:25:10.594Z,93839.88
2023-01-19T06:27:37.339Z,93849.22
2023-01-19T06:30:04.586Z,93846.44
2023-01-19T06:32:32.664Z,93850.84
2023-01-19T06:34:59.296Z,93853.44
2023-01-19T06:37:27.261Z,93861.66
2023-01-19T06:39:53.919Z,93864.44
2023-01-19T06:42:20.567Z,93874.47
2023-01-19T06:44:48.025Z,93867.06
2023-01-19T06:47:16.363Z,93872.50
2023-01-19T06:49:44.613Z,93869.31
2023-01-19T06:52:12.471Z,93874.13
2023-01-19T06:54:39.239Z,93876.75
2023-01-19T06:57:05.929Z,93878.19
2023-01-19T06:59:32.523Z,93875.63
2023-01-19T07:01:59.462Z,93876.84
2023-01-19T07:04:26.937Z,93886.63
2023-01-19T07:06:55.069Z,93882.03
2023-01-19T07:09:21.957Z,93892.22
2023-01-19T07:11:48.594Z,93885.22
2023-01-19T07:14:15.632Z,93883.00
2023-01-19T07:16:42.541Z,93892.16
2023-01-19T07:19:10.676Z,93894.31
2023-01-19T07:21:37.506Z,93892.13
2023-01-19T07:24:06.301Z,93900.50
2023-01-19T07:26:32.993Z,93901.06
2023-01-19T07:28:59.614Z,93903.25
2023-01-19T07:31:26.417Z,93910.81
2023-01-19T07:33:53.398Z,93911.41
2023-01-19T07:36:20.038Z,93908.44
2023-01-19T07:38:46.694Z,93911.63
2023-01-19T07:41:14.665Z,93918.34
2023-01-19T07:43:41.348Z,93912.75
2023-01-19T07:46:08.392Z,93921.72
2023-01-19T07:48:35.236Z,93926.66
2023-01-19T07:51:11.027Z,93928.88
2023-01-19T07:53:39.992Z,93925.84
2023-01-19T07:56:07.748Z,93931.63
2023-01-19T07:58:36.025Z,93922.84
2023-01-19T08:01:06.747Z,93934.78
2023-01-19T08:03:33.631Z,93939.78
2023-01-19T08:06:00.422Z,93935.38
2023-01-19T08:08:29.361Z,93941.75
2023-01-19T08:10:55.983Z,93943.94
2023-01-19T08:13:22.697Z,93952.31
2023-01-19T08:15:51.704Z,93953.69
2023-01-19T08:18:19.171Z,93958.22
2023-01-19T08:20:46.192Z,93955.81
2023-01-19T08:23:12.876Z,93953.38
2023-01-19T08:25:45.098Z,93959.50
2023-01-19T08:28:13.235Z,93955.66
2023-01-19T08:30:40.759Z,93946.41
2023-01-19T08:33:08.844Z,93945.94
2023-01-19T08:35:37.468Z,93948.47
2023-01-19T08:38:04.955Z,93957.00
2023-01-19T08:40:34.652Z,93949.72
2023-01-19T08:43:07.195Z,93957.44
2023-01-19T08:45:34.868Z,93950.03
2023-01-19T08:48:01.980Z,93944.53
2023-01-19T08:50:31.788Z,93960.44
2023-01-19T08:52:59.626Z,93958.25
2023-01-19T08:55:27.166Z,93957.00
2023-01-19T08:57:54.975Z,93959.50
2023-01-19T09:00:22.395Z,93954.00
2023-01-19T09:02:49.169Z,93959.28
2023-01-19T09:05:16.086Z,93954.84
2023-01-19T09:07:46.776Z,93958.63
2023-01-19T09:10:14.175Z,93958.16
2023-01-19T09:12:40.924Z,93961.56
2023-01-19T09:15:10.659Z,93968.34
2023-01-19T09:17:37.452Z,93970.09
2023-01-19T09:20:06.244Z,93975.75
2023-01-19T09:22:33.405Z,93970.09
2023-01-19T09:25:01.490Z,93971.59
2023-01-19T09:27:28.213Z,93975.09
2023-01-19T09:29:55.000Z,93982.91
2023-01-19T09:32:22.870Z,93981.47
2023-01-19T09:34:49.605Z,93980.34
2023-01-19T09:37:16.274Z,93977.53
2023-01-19T09:39:42.959Z,93973.34
2023-01-19T09:42:23.637Z,93975.28
2023-01-19T09:44:52.819Z,93977.28
2023-01-19T09:47:23.424Z,93983.41
2023-01-19T09:49:54.995Z,93984.22
2023-01-19T09:52:22.319Z,93977.16
2023-01-19T09:54:54.253Z,93983.53
2023-01-19T09:57:23.522Z,93979.22
2023-01-19T09:59:51.425Z,93979.66
2023-01-19T10:02:27.579Z,93981.16
2023-01-19T10:04:59.074Z,93977.19
2023-01-19T10:07:37.531Z,93981.84
2023-01-19T10:10:16.619Z,93987.41
2023-01-19T10:12:54.097Z,93988.88
2023-01-19T10:15:35.327Z,93984.88
2023-01-19T10:18:16.103Z,93982.97
2023-01-19T10:20:47.989Z,93986.50
2023-01-19T10:23:24.986Z,93981.72
2023-01-19T10:25:52.223Z,93988.44
2023-01-19T10:28:25.305Z,93985.94
2023-01-19T10:30:54.695Z,93988.97
2023-01-19T10:33:21.610Z,93978.53
2023-01-19T10:35:48.971Z,93975.72
2023-01-19T10:38:22.265Z,93971.75
2023-01-19T10:40:56.083Z,93972.53
2023-01-19T10:43:42.170Z,93984.09
2023-01-19T10:46:19.243Z,93976.16
2023-01-19T10:48:49.279Z,93972.75
2023-01-19T10:51:16.678Z,93975.25
2023-01-19T10:53:52.707Z,93966.44
2023-01-19T10:56:23.149Z,93964.81
2023-01-19T10:58:51.536Z,93966.63
2023-01-19T11:01:20.750Z,93971.94
2023-01-19T11:03:48.074Z,93965.03
2023-01-19T11:06:25.295Z,93960.59
2023-01-19T11:08:53.256Z,93964.31
2023-01-19T11:11:21.677Z,93959.22
2023-01-19T11:14:07.330Z,93958.78
2023-01-19T11:16:35.233Z,93966.25
2023-01-19T11:19:03.445Z,93959.22
2023-01-19T11:21:32.366Z,93958.34
2023-01-19T11:24:01.604Z,93953.00
2023-01-19T11:26:31.278Z,93950.06
2023-01-19T11:29:00.276Z,93948.94
2023-01-19T11:31:35.748Z,93950.88
2023-01-19T11:34:03.832Z,93946.69
2023-01-19T11:36:32.789Z,93944.75
2023-01-19T11:39:01.663Z,93943.19
2023-01-19T11:41:30.956Z,93939.09
2023-01-19T11:44:00.387Z,93939.53
2023-01-19T11:46:44.047Z,93937.16
2023-01-19T11:49:20.098Z,93939.19
2023-01-19T11:51:58.632Z,93934.75
2023-01-19T11:54:29.999Z,93932.50
2023-01-19T11:57:00.174Z,93927.53
2023-01-19T11:59:27.068Z,93925.13
2023-01-19T12:01:58.730Z,93918.88
2023-01-19T12:04:29.444Z,93917.31
2023-01-19T12:06:59.079Z,93918.88
2023-01-19T12:09:29.747Z,93916.72
2023-01-19T12:12:01.929Z,93919.91
2023-01-19T12:14:38.074Z,93920.38
2023-01-19T12:17:11.092Z,93916.19
2023-01-19T12:19:45.093Z,93918.00
2023-01-19T12:22:15.458Z,93918.66
2023-01-19T12:24:47.227Z,93923.75
2023-01-19T12:27:21.075Z,93910.94
2023-01-19T12:29:48.340Z,93914.78
2023-01-19T12:32:33.446Z,93914.00
2023-01-19T12:35:00.125Z,93902.22
2023-01-19T12:37:36.414Z,93906.75
2023-01-19T12:40:17.663Z,93907.34
2023-01-19T12:42:46.044Z,93904.72
2023-01-19T12:45:16.257Z,93904.16
2023-01-19T12:47:53.073Z,93896.66
2023-01-19T12:50:23.515Z,93909.94
2023-01-19T12:52:57.094Z,93894.88
2023-01-19T12:55:27.858Z,93900.09
2023-01-19T12:57:59.693Z,93896.66
2023-01-19T13:00:32.879Z,93895.22
2023-01-19T13:03:02.691Z,93900.09
2023-01-19T13:05:49.536Z,93897.13
2023-01-19T13:08:46.195Z,93898.63
2023-01-19T13:11:19.686Z,93902.00
2023-01-19T13:14:26.362Z,93899.53
2023-01-19T13:17:01.009Z,93896.78
2023-01-19T13:19:49.849Z,93903.28
2023-01-19T13:22:52.075Z,93903.13
2023-01-19T13:25:27.821Z,93900.41
2023-01-19T13:27:55.163Z,93900.09
2023-01-19T13:30:27.242Z,93901.13
2023-01-19T13:32:56.604Z,93902.25
2023-01-19T13:35:24.826Z,93898.97
2023-01-19T13:37:52.296Z,93902.81
2023-01-19T13:40:22.576Z,93904.06
2023-01-19T13:42:51.575Z,93907.44
2023-01-19T13:45:27.742Z,93905.19
2023-01-19T13:47:57.588Z,93910.06
2023-01-19T13:50:27.519Z,93905.09
2023-01-19T13:52:56.643Z,93912.78
2023-01-19T13:55:24.211Z,93909.41
2023-01-19T13:57:52.021Z,93907.22
2023-01-19T14:00:21.743Z,93907.47
2023-01-19T14:02:58.725Z,93905.84
2023-01-19T14:05:29.215Z,93910.53
2023-01-19T14:08:03.959Z,93911.53
2023-01-19T14:10:31.350Z,93914.13
2023-01-19T14:12:59.809Z,93921.16
2023-01-19T14:15:26.914Z,93919.59
2023-01-19T14:18:12.226Z,93920.13
2023-01-19T14:20:41.175Z,93915.16
2023-01-19T14:23:37.785Z,93914.78
2023-01-19T14:26:04.973Z,93922.53
2023-01-19T14:28:42.280Z,93926.13
2023-01-19T14:31:20.848Z,93918.75
2023-01-19T14:33:49.283Z,93929.19
2023-01-19T14:36:39.300Z,93924.53
2023-01-19T14:39:16.684Z,93919.91
2023-01-19T14:41:49.662Z,93921.81
2023-01-19T14:44:19.934Z,93925.00
2023-01-19T14:46:48.372Z,93929.63
2023-01-19T14:49:21.766Z,93926.25
2023-01-19T14:51:50.754Z,93928.06
2023-01-19T14:54:19.171Z,93930.44
2023-01-19T14:56:45.920Z,93930.75
2023-01-19T14:59:12.726Z,93935.28
2023-01-19T15:01:39.615Z,93931.31
2023-01-19T15:04:06.452Z,93937.53
2023-01-19T15:06:38.227Z,93937.78
2023-01-19T15:09:06.388Z,93936.41
2023-01-19T15:11:34.811Z,93941.03
2023-01-19T15:14:02.434Z,93935.63
2023-01-19T15:16:31.655Z,93944.81
2023-01-19T15:18:58.388Z,93946.38
2023-01-19T15:21:28.454Z,93946.38
2023-01-19T15:23:55.629Z,93954.97
2023-01-19T15:26:25.833Z,93952.63
2023-01-19T15:28:52.800Z,93952.25
2023-01-19T15:31:22.129Z,93951.25
2023-01-19T15:33:49.196Z,93954.41
2023-01-19T15:36:18.516Z,93949.78
2023-01-19T15:38:45.473Z,93948.75
2023-01-19T15:41:13.443Z,93948.88
2023-01-19T15:43:41.626Z,93942.41
2023-01-19T15:46:11.183Z,93950.03
2023-01-19T15:48:37.883Z,93954.66
2023-01-19T15:51:05.467Z,93951.47
2023-01-19T15:53:32.331Z,93953.09
2023-01-19T15:55:59.030Z,93953.88
2023-01-19T15:58:26.671Z,93953.09
2023-01-19T16:00:56.111Z,93951.72
2023-01-19T16:03:25.183Z,93947.75
2023-01-19T16:05:52.077Z,93954.19
2023-01-19T16:08:19.021Z,93948.41
2023-01-19T16:10:45.736Z,93959.28
2023-01-19T16:13:12.553Z,93960.50
2023-01-19T16:15:42.391Z,93954.16
2023-01-19T16:18:10.494Z,93953.34
2023-01-19T16:20:37.272Z,93954.97
2023-01-19T16:23:19.854Z,93954.38
2023-01-19T16:25:55.459Z,93950.19
2023-01-19T16:28:22.149Z,93953.22
2023-01-19T16:30:49.470Z,93957.44
2023-01-19T16:33:17.696Z,93955.03
2023-01-19T16:35:44.424Z,93953.22
2023-01-19T16:38:11.217Z,93960.69
2023-01-19T16:40:38.117Z,93959.13
2023-01-19T16:43:04.854Z,93956.94
2023-01-19T16:45:31.560Z,93954.56
2023-01-19T16:47:58.271Z,93960.78
2023-01-19T16:50:26.405Z,93952.97
2023-01-19T16:52:56.331Z,93960.00
2023-01-19T16:55:23.059Z,93957.63
2023-01-19T16:57:49.759Z,93957.69
2023-01-19T17:00:17.112Z,93957.78
2023-01-19T17:02:43.881Z,93960.69
2023-01-19T17:05:10.727Z,93957.00
2023-01-19T17:07:38.863Z,93955.50
2023-01-19T17:10:07.060Z,93954.81
2023-01-19T17:12:33.813Z,93960.44
2023-01-19T17:15:00.618Z,93957.25
2023-01-19T17:17:27.377Z,93950.44
2023-01-19T17:19:53.982Z,93958.03
2023-01-19T17:22:20.728Z,93957.84
2023-01-19T17:24:49.075Z,93960.22
2023-01-19T17:27:17.105Z,93946.41
2023-01-19T17:29:43.840Z,93957.41
2023-01-19T17:32:10.520Z,93947.78
2023-01-19T17:34:37.779Z,93945.38
2023-01-19T17:37:04.683Z,93950.81
2023-01-19T17:39:31.559Z,93955.25
2023-01-19T17:41:59.783Z,93956.66
2023-01-19T17:44:26.515Z,93959.13
2023-01-19T17:46:53.207Z,93953.00
2023-01-19T17:49:19.975Z,93950.03
2023-01-19T17:51:51.867Z,93960.44
2023-01-19T17:54:18.624Z,93954.44
2023-01-19T17:56:45.219Z,93956.47
2023-01-19T17:59:13.375Z,93960.06
2023-01-19T18:01:41.210Z,93960.28
2023-01-19T18:04:08.860Z,93958.34
2023-01-19T18:06:40.390Z,93961.00
2023-01-19T18:09:07.843Z,93967.06
2023-01-19T18:11:34.935Z,93960.28
2023-01-19T18:14:02.160Z,93963.25
2023-01-19T18:16:30.624Z,93960.19
2023-01-19T18:19:00.982Z,93963.59
2023-01-19T18:21:31.120Z,93962.59
2023-01-19T18:24:02.824Z,93962.22
2023-01-19T18:26:31.299Z,93970.00
2023-01-19T18:29:01.281Z,93971.41
2023-01-19T18:31:28.151Z,93975.00
2023-01-19T18:33:56.379Z,93983.84
2023-01-19T18:36:23.380Z,93979.63
2023-01-19T18:38:50.683Z,93970.59
2023-01-19T18:41:19.550Z,93964.19
2023-01-19T18:43:46.842Z,93967.94
2023-01-19T18:46:14.829Z,93977.91
2023-01-19T18:48:41.672Z,93976.09
2023-01-19T18:51:11.778Z,93969.31
2023-01-19T18:53:38.919Z,93967.94
2023-01-19T18:56:06.626Z,93968.38
2023-01-19T18:58:36.500Z,93970.16
2023-01-19T19:01:03.370Z,93970.41
2023-01-19T19:03:30.672Z,93969.81
2023-01-19T19:06:02.074Z,93963.81
2023-01-19T19:08:30.363Z,93964.41
2023-01-19T19:10:57.058Z,93960.78
2023-01-19T19:13:23.946Z,93961.38
2023-01-19T19:15:52.557Z,93957.75
2023-01-19T19:18:19.520Z,93959.91
2023-01-19T19:20:46.248Z,93959.28
2023-01-19T19:23:13.037Z,93957.25
2023-01-19T19:25:41.153Z,93955.44
2023-01-19T19:28:07.844Z,93952.06
2023-01-19T19:30:37.796Z,93949.66
2023-01-19T19:33:05.104Z,93953.28
2023-01-19T19:35:31.780Z,93949.66
2023-01-19T19:37:58.594Z,93954.66
2023-01-19T19:40:26.445Z,93951.63
2023-01-19T19:42:55.410Z,93948.22
2023-01-19T19:45:23.920Z,93947.44
2023-01-19T19:47:50.918Z,93946.84
2023-01-19T19:50:17.742Z,93949.66
2023-01-19T19:52:46.689Z,93949.91
2023-01-19T19:55:13.652Z,93951.91
2023-01-19T19:57:40.399Z,93947.16
2023-01-19T20:00:10.176Z,93947.94
2023-01-19T20:02:37.001Z,93947.00
2023-01-19T20:05:04.787Z,93944.00
2023-01-19T20:07:31.735Z,93943.88
2023-01-19T20:09:58.430Z,93946.53
2023-01-19T20:12:25.345Z,93949.19
2023-01-19T20:14:52.016Z,93947.81
2023-01-19T20:17:20.735Z,93948.06
2023-01-19T20:19:49.049Z,93949.84
2023-01-19T20:22:15.943Z,93946.25
2023-01-19T20:24:42.665Z,93945.81
2023-01-19T20:27:09.399Z,93940.41
2023-01-19T20:29:36.200Z,93939.81
2023-01-19T20:32:03.183Z,93947.63
2023-01-19T20:34:33.526Z,93940.03
2023-01-19T20:37:01.662Z,93934.66
2023-01-19T20:39:30.126Z,93940.16
2023-01-19T20:41:56.899Z,93934.25
2023-01-19T20:44:25.121Z,93941.28
2023-01-19T20:46:53.214Z,93948.13
2023-01-19T20:49:20.489Z,93948.16
2023-01-19T20:51:48.751Z,93950.25
2023-01-19T20:54:17.747Z,93952.88
2023-01-19T20:56:44.860Z,93947.91
2023-01-19T20:59:12.243Z,93955.09
2023-01-19T21:01:40.282Z,93958.34
2023-01-19T21:04:07.326Z,93960.56
2023-01-19T21:06:34.205Z,93959.38
2023-01-19T21:09:02.990Z,93965.00
2023-01-19T21:11:30.386Z,93959.44
2023-01-19T21:13:57.048Z,93956.47
2023-01-19T21:16:25.463Z,93959.25
2023-01-19T21:18:52.596Z,93949.50
2023-01-19T21:21:29.749Z,93956.69
2023-01-19T21:23:57.950Z,93960.50
2023-01-19T21:26:26.101Z,93950.53
2023-01-19T21:28:52.827Z,93961.56
2023-01-19T21:31:21.337Z,93965.38
2023-01-19T21:33:49.209Z,93961.16
2023-01-19T21:36:15.964Z,93971.56
2023-01-19T21:38:42.700Z,93961.97
2023-01-19T21:41:12.595Z,93962.97
2023-01-19T21:43:42.568Z,93963.16
2023-01-19T21:46:09.935Z,93968.78
2023-01-19T21:48:36.695Z,93975.41
2023-01-19T21:51:03.562Z,93972.41
2023-01-19T21:53:30.229Z,93976.44
2023-01-19T21:55:58.612Z,93969.88
2023-01-19T21:58:25.385Z,93970.66
2023-01-19T22:00:59.557Z,93981.03
2023-01-19T22:03:27.267Z,93976.84
2023-01-19T22:05:54.172Z,93978.63
2023-01-19T22:08:24.124Z,93975.84
2023-01-19T22:10:50.622Z,93975.47
2023-01-19T22:13:17.314Z,93977.47
2023-01-19T22:15:43.968Z,93975.72
2023-01-19T22:18:12.143Z,93982.94
2023-01-19T22:20:39.062Z,93983.34
2023-01-19T22:23:05.718Z,93988.53
2023-01-19T22:25:32.989Z,93990.34
2023-01-19T22:27:59.722Z,93989.75
2023-01-19T22:30:26.676Z,93993.72
2023-01-19T22:32:53.632Z,93997.53
2023-01-19T22:35:21.559Z,94007.06
2023-01-19T22:37:48.213Z,94005.66
2023-01-19T22:40:15.134Z,94003.47
2023-01-19T22:42:45.246Z,93997.06
2023-01-19T22:45:12.121Z,93997.66
2023-01-19T22:47:39.067Z,93999.84
2023-01-19T22:50:06.982Z,93992.66
2023-01-19T22:52:35.142Z,94000.63
2023-01-19T22:55:01.773Z,93996.81
2023-01-19T22:57:33.416Z,93993.03
2023-01-19T23:00:00.050Z,94002.63
2023-01-19T23:02:26.657Z,94006.78
2023-01-19T23:04:53.275Z,94011.00
2023-01-19T23:07:19.995Z,94008.41
2023-01-19T23:09:47.972Z,94009.84
2023-01-19T23:12:14.586Z,94010.63
2023-01-19T23:14:41.326Z,94004.47
2023-01-19T23:17:07.960Z,94008.28
2023-01-19T23:19:34.683Z,94002.28
2023-01-19T23:22:01.288Z,93995.31
2023-01-19T23:24:28.006Z,93999.69
2023-01-19T23:26:56.072Z,93998.13
2023-01-19T23:29:23.292Z,93999.91
2023-01-19T23:31:50.278Z,94006.09
2023-01-19T23:34:17.142Z,94004.50
2023-01-19T23:36:44.541Z,94008.06
2023-01-19T23:39:14.000Z,94003.72
2023-01-19T23:41:40.723Z,93999.31
2023-01-19T23:44:09.068Z,94002.91
2023-01-19T23:46:35.799Z,93999.09
2023-01-19T23:49:02.631Z,94002.09
2023-01-19T23:51:31.018Z,94013.88
2023-01-19T23:53:58.828Z,94013.25
2023-01-19T23:56:27.175Z,94018.63
2023-01-19T23:58:55.673Z,94020.84
